Time;durP1;ratioP1;P1;durP2;ratioP2;P2;SDS_P1;SDS_P2;PMS_P1;PMS_P2;Temp;Humidity;BMP_temperature;BMP_pressure;BME280_temperature;BME280_humidity;BME280_pressure;Samples;Min_cycle;Max_cycle;Signal;HPM_P1;HPM_P2
2022/12/31 09:42:08;;;;;;;0.73;0.60;;;;;;;16.30;83.31;98794.25;5109945;28;20567;-85
2022/12/31 09:45:12;;;;;;;0.87;0.50;;;;;;;16.88;78.69;98801.53;5092553;28;38917;-86
2022/12/31 09:48:17;;;;;;;2.97;0.67;;;;;;;17.40;75.49;98785.28;5081098;28;40765;-90
2022/12/31 09:51:01;;;;;;;1.40;0.63;;;;;;;18.04;72.58;98819.53;5089466;28;41873;-88
2022/12/31 09:54:25;;;;;;;0.93;0.60;;;;;;;18.38;70.65;98809.13;5073303;28;40904;-89
2022/12/31 09:57:18;;;;;;;0.83;0.60;;;;;;;18.62;69.10;98820.22;5026289;28;39137;-87
2022/12/31 09:59:52;;;;;;;2.70;0.70;;;;;;;18.75;67.60;98826.09;5048169;28;42725;-85
2022/12/31 10:02:43;;;;;;;1.37;0.70;;;;;;;18.70;66.82;98804.22;5109399;27;43365;-89
2022/12/31 10:05:28;;;;;;;0.80;0.80;;;;;;;19.11;66.16;98834.25;5088715;28;41033;-88
2022/12/31 10:08:04;;;;;;;1.03;0.80;;;;;;;19.38;65.63;98842.28;5105470;28;39994;-85
2022/12/31 10:10:41;;;;;;;1.80;0.70;;;;;;;19.50;64.53;98840.25;5087399;28;40418;-85
2022/12/31 10:13:29;;;;;;;0.70;0.70;;;;;;;19.35;63.64;98810.34;5090983;28;41677;-85
2022/12/31 10:16:22;;;;;;;0.93;0.80;;;;;;;19.48;63.71;98837.69;5088651;28;42736;-88
2022/12/31 10:19:22;;;;;;;0.40;0.40;;;;;;;19.75;63.32;98857.44;5089512;28;39078;-84
2022/12/31 10:22:04;;;;;;;2.47;0.77;;;;;;;20.34;60.76;98862.13;5089406;28;40720;-87
2022/12/31 10:24:53;;;;;;;1.97;0.70;;;;;;;20.66;59.53;98865.06;5101760;28;42328;-89
2022/12/31 10:27:37;;;;;;;0.80;0.80;;;;;;;20.77;58.31;98839.75;5123292;28;41594;-87
2022/12/31 10:30:16;;;;;;;2.17;1.07;;;;;;;20.82;58.11;98868.84;5123047;28;38932;-84
2022/12/31 10:32:52;;;;;;;0.80;0.77;;;;;;;20.58;58.25;98843.50;5109718;28;40236;-85
2022/12/31 10:35:29;;;;;;;1.70;0.70;;;;;;;20.77;58.11;98848.63;5104111;28;43027;-88
2022/12/31 10:38:10;;;;;;;1.70;0.87;;;;;;;21.22;56.78;98841.28;5089666;28;41958;-87
2022/12/31 10:41:05;;;;;;;1.43;1.00;;;;;;;21.90;55.39;98851.84;5086723;28;39905;-87
2022/12/31 10:44:05;;;;;;;1.07;0.90;;;;;;;22.30;53.97;98864.50;5087072;28;41151;-87
2022/12/31 10:46:59;;;;;;;0.77;0.77;;;;;;;22.27;52.58;98879.19;5089981;28;42002;-87
2022/12/31 10:50:01;;;;;;;2.60;0.80;;;;;;;22.21;54.02;98861.00;5089766;28;42337;-88
2022/12/31 10:53:10;;;;;;;0.90;0.90;;;;;;;22.52;52.81;98858.41;5079450;28;38863;-87
2022/12/31 10:56:00;;;;;;;2.10;1.00;;;;;;;22.68;50.55;98858.38;5059737;28;40729;-88
2022/12/31 10:59:04;;;;;;;1.53;0.87;;;;;;;23.01;50.34;98869.94;5076326;28;42921;-85
2022/12/31 11:01:47;;;;;;;2.10;0.97;;;;;;;22.80;50.01;98842.69;5018131;28;40996;-88
2022/12/31 11:04:51;;;;;;;1.17;1.00;;;;;;;22.89;49.66;98876.75;5071572;28;39624;-84
2022/12/31 11:07:45;;;;;;;1.70;1.10;;;;;;;22.71;50.50;98873.41;5073061;28;41271;-86
2022/12/31 11:10:51;;;;;;;1.93;0.90;;;;;;;22.46;50.91;98880.69;5073043;28;41678;-86
2022/12/31 11:13:54;;;;;;;2.10;1.10;;;;;;;22.03;52.09;98857.59;5073749;28;41235;-86
2022/12/31 11:16:38;;;;;;;2.17;0.70;;;;;;;21.99;52.59;98864.38;5072363;28;38776;-86
2022/12/31 11:19:19;;;;;;;1.47;1.07;;;;;;;21.90;52.39;98858.06;5072439;28;40663;-87
2022/12/31 11:22:05;;;;;;;3.13;1.07;;;;;;;22.18;51.82;98872.13;5072437;28;42450;-86
2022/12/31 11:24:45;;;;;;;1.30;0.97;;;;;;;22.28;51.54;98861.13;5076307;28;41064;-86
2022/12/31 11:27:25;;;;;;;1.73;1.17;;;;;;;22.70;49.33;98871.72;5077208;28;41380;-89
2022/12/31 11:30:11;;;;;;;2.23;1.00;;;;;;;22.99;49.33;98887.38;5077853;28;42030;-86
2022/12/31 11:32:54;;;;;;;1.17;0.77;;;;;;;23.88;47.63;98889.63;5077138;28;42011;-87
2022/12/31 11:35:32;;;;;;;1.37;1.07;;;;;;;24.76;45.91;98884.50;5076521;28;42293;-85
2022/12/31 11:38:14;;;;;;;1.57;0.97;;;;;;;25.50;43.79;98917.00;5076815;28;38886;-88
2022/12/31 11:40:55;;;;;;;1.20;1.07;;;;;;;24.69;44.33;98899.81;5076188;28;40699;-87
2022/12/31 11:43:29;;;;;;;2.93;1.23;;;;;;;23.99;45.91;98897.31;5076264;28;41671;-88
2022/12/31 11:46:18;;;;;;;2.43;1.63;;;;;;;23.45;47.31;98869.44;5076913;28;41188;-89
2022/12/31 11:49:00;;;;;;;1.57;1.13;;;;;;;23.21;48.05;98878.50;5077130;28;38762;-85
2022/12/31 11:51:59;;;;;;;1.13;1.03;;;;;;;23.08;48.40;98873.66;5076409;28;41829;-87
2022/12/31 11:55:00;;;;;;;2.10;1.20;;;;;;;23.29;47.43;98876.59;5076840;28;41697;-88
2022/12/31 11:57:34;;;;;;;2.63;1.40;;;;;;;23.34;48.03;98869.81;5071605;28;41125;-89
2022/12/31 12:00:15;;;;;;;1.83;1.30;;;;;;;23.59;47.62;98879.53;5091531;28;39963;-86
2022/12/31 12:02:47;;;;;;;1.87;1.10;;;;;;;24.13;46.04;98901.09;5075261;28;41797;-89
2022/12/31 12:05:19;;;;;;;0.83;0.77;;;;;;;23.89;46.15;98908.38;5076106;28;44113;-91
2022/12/31 12:07:49;;;;;;;1.60;1.20;;;;;;;23.55;47.14;98889.00;5076519;28;42240;-89
2022/12/31 12:10:36;;;;;;;1.53;0.90;;;;;;;23.34;47.32;98859.84;5076324;28;39915;-89
2022/12/31 12:13:13;;;;;;;1.83;0.87;;;;;;;22.94;48.36;98874.38;5075878;28;40707;-86
2022/12/31 12:15:44;;;;;;;1.60;0.90;;;;;;;22.82;48.30;98859.56;5076712;28;41882;-88
2022/12/31 12:18:28;;;;;;;2.10;1.00;;;;;;;22.89;47.82;98857.84;5075634;28;42337;-87
2022/12/31 12:21:03;;;;;;;1.67;0.97;;;;;;;23.18;47.24;98882.38;5089783;28;39969;-88
2022/12/31 12:23:33;;;;;;;1.53;1.37;;;;;;;24.06;46.21;98875.81;5075989;28;41479;-85
2022/12/31 12:26:01;;;;;;;1.20;1.10;;;;;;;25.06;44.55;98885.38;5075739;28;41571;-87
2022/12/31 12:28:31;;;;;;;2.07;0.97;;;;;;;25.73;42.35;98887.91;5075376;28;41454;-88
2022/12/31 12:31:02;;;;;;;2.27;1.17;;;;;;;26.49;40.77;98918.97;5076084;28;39459;-87
2022/12/31 12:33:40;;;;;;;1.23;0.90;;;;;;;26.96;40.77;98914.75;5075885;28;42950;-89
2022/12/31 12:36:10;;;;;;;1.67;1.03;;;;;;;27.52;39.90;98901.88;5075856;28;42311;-89
2022/12/31 12:38:39;;;;;;;1.30;0.80;;;;;;;28.19;39.02;98903.78;5076128;28;42031;-88
2022/12/31 12:41:10;;;;;;;1.37;1.07;;;;;;;28.91;37.46;98908.44;5075649;28;40488;-90
2022/12/31 12:43:38;;;;;;;1.87;0.97;;;;;;;29.35;35.72;98937.72;5076088;28;40816;-89
2022/12/31 12:46:18;;;;;;;1.33;0.83;;;;;;;28.99;36.52;98912.84;5092380;28;42725;-89
2022/12/31 12:48:48;;;;;;;1.10;1.00;;;;;;;28.70;37.12;98906.75;5075501;28;41278;-87
2022/12/31 12:51:31;;;;;;;1.20;1.00;;;;;;;28.24;36.94;98879.50;5075453;28;38758;-85
2022/12/31 12:54:11;;;;;;;0.80;0.80;;;;;;;28.10;37.21;98878.63;5092464;28;40804;-87
2022/12/31 12:56:47;;;;;;;1.77;1.07;;;;;;;28.01;37.36;98885.31;5092417;28;41779;-86
2022/12/31 12:59:44;;;;;;;2.33;0.90;;;;;;;27.30;38.40;98890.28;5075706;28;42365;-93
2022/12/31 13:02:39;;;;;;;1.10;0.83;;;;;;;26.31;39.85;98867.03;5075098;28;40714;-86
2022/12/31 13:05:17;;;;;;;1.33;1.03;;;;;;;25.90;41.26;98851.38;5093062;28;41129;-88
2022/12/31 13:07:57;;;;;;;0.77;0.70;;;;;;;25.50;41.22;98844.63;5075005;28;42661;-83
2022/12/31 13:10:42;;;;;;;1.43;0.90;;;;;;;24.91;42.69;98860.13;5075658;28;41123;-87
2022/12/31 13:13:22;;;;;;;1.47;1.00;;;;;;;24.38;43.69;98853.06;5074912;28;40505;-86
2022/12/31 13:15:56;;;;;;;0.87;0.80;;;;;;;23.76;44.74;98821.59;5075045;28;40868;-86
2022/12/31 13:18:38;;;;;;;0.80;0.80;;;;;;;23.17;45.68;98805.03;5074776;28;42332;-86
2022/12/31 13:21:19;;;;;;;1.83;0.70;;;;;;;22.96;46.11;98825.59;5091930;28;41114;-88
2022/12/31 13:23:52;;;;;;;0.97;0.60;;;;;;;22.58;47.34;98815.38;5075166;28;39261;-83
2022/12/31 13:26:28;;;;;;;2.30;0.90;;;;;;;22.35;48.10;98821.69;5075088;28;40623;-88
2022/12/31 13:28:58;;;;;;;1.27;0.97;;;;;;;22.02;48.27;98804.69;5074918;28;43335;-86
2022/12/31 13:31:31;;;;;;;0.80;0.80;;;;;;;21.85;48.63;98812.75;5075099;28;41142;-87
2022/12/31 13:34:04;;;;;;;0.97;0.80;;;;;;;21.59;49.25;98795.06;5075155;28;40331;-88
2022/12/31 13:36:35;;;;;;;0.70;0.70;;;;;;;21.37;49.94;98791.16;5074819;28;40821;-87
2022/12/31 13:39:08;;;;;;;1.90;0.87;;;;;;;21.14;50.35;98789.03;5075258;28;41861;-87
2022/12/31 13:41:42;;;;;;;2.23;0.87;;;;;;;20.99;51.10;98797.94;5074355;28;40516;-87
2022/12/31 13:44:17;;;;;;;1.90;0.70;;;;;;;20.85;50.90;98807.47;5074996;28;39015;-86
2022/12/31 13:46:52;;;;;;;1.77;0.87;;;;;;;20.70;51.50;98792.91;5074772;28;40889;-88
2022/12/31 13:49:25;;;;;;;2.33;0.80;;;;;;;20.61;51.70;98796.59;5092111;28;45264;-87
2022/12/31 13:51:56;;;;;;;1.20;0.70;;;;;;;20.36;51.98;98784.84;5074567;28;41220;-85
2022/12/31 13:54:34;;;;;;;2.73;0.97;;;;;;;20.28;52.16;98782.06;5075224;28;39631;-86
2022/12/31 13:57:09;;;;;;;1.53;0.80;;;;;;;20.24;52.39;98780.72;5074719;28;42813;-89
2022/12/31 13:59:40;;;;;;;2.07;0.80;;;;;;;20.17;52.39;98796.63;5074779;28;41703;-87
2022/12/31 14:02:25;;;;;;;1.37;0.73;;;;;;;20.16;52.71;98807.53;5074110;28;43541;-88
2022/12/31 14:04:57;;;;;;;1.00;0.90;;;;;;;20.10;52.86;98800.97;5074731;28;38984;-86
2022/12/31 14:07:30;;;;;;;1.23;0.60;;;;;;;19.97;53.23;98796.00;5075190;28;40676;-84
2022/12/31 14:09:58;;;;;;;2.03;1.00;;;;;;;19.85;53.28;98804.47;5074598;28;42048;-88
2022/12/31 14:12:35;;;;;;;0.67;0.60;;;;;;;19.79;53.47;98813.13;5074166;28;42086;-86
2022/12/31 14:15:11;;;;;;;2.80;1.00;;;;;;;19.70;53.42;98810.38;5074399;28;39525;-85
2022/12/31 14:17:45;;;;;;;1.00;0.80;;;;;;;19.72;53.90;98813.75;5074197;28;40503;-85
2022/12/31 14:20:26;;;;;;;0.97;0.90;;;;;;;19.55;53.89;98790.41;5074433;28;41795;-87
2022/12/31 14:23:04;;;;;;;3.23;0.90;;;;;;;19.49;54.62;98792.91;5073992;28;41368;-87
2022/12/31 14:25:37;;;;;;;1.53;0.90;;;;;;;19.42;54.69;98807.88;5074551;28;38770;-86
2022/12/31 14:28:14;;;;;;;2.03;1.13;;;;;;;19.30;55.19;98801.88;5076810;28;41878;-87
2022/12/31 14:30:45;;;;;;;1.80;0.90;;;;;;;19.15;55.17;98781.97;5077986;28;41604;-87
2022/12/31 14:33:29;;;;;;;2.30;1.17;;;;;;;18.97;55.77;98763.13;5077265;28;41083;-88
2022/12/31 14:36:06;;;;;;;1.17;1.07;;;;;;;18.93;56.36;98773.31;5078371;28;38707;-89
2022/12/31 14:38:48;;;;;;;1.67;0.90;;;;;;;18.90;56.59;98783.53;5077585;28;40947;-86
2022/12/31 14:41:37;;;;;;;0.87;0.83;;;;;;;18.74;56.61;98768.06;5077663;28;41192;-88
2022/12/31 14:44:23;;;;;;;1.73;1.10;;;;;;;18.74;57.15;98783.31;5076207;28;41152;-87
2022/12/31 14:47:04;;;;;;;1.43;0.80;;;;;;;18.60;57.36;98776.59;5077537;28;38894;-86
2022/12/31 14:49:44;;;;;;;1.03;0.97;;;;;;;18.23;57.50;98731.84;5077651;28;40499;-89
2022/12/31 14:52:21;;;;;;;1.53;0.90;;;;;;;18.39;57.90;98766.09;5077075;28;43486;-86
2022/12/31 14:55:21;;;;;;;0.80;0.80;;;;;;;18.39;58.33;98773.28;5077339;28;42915;-88
2022/12/31 14:57:49;;;;;;;1.40;0.80;;;;;;;18.22;58.51;98759.66;5077194;28;39059;-83
2022/12/31 15:00:51;;;;;;;1.57;1.10;;;;;;;18.24;58.84;98779.13;5077162;28;40497;-88
2022/12/31 15:03:26;;;;;;;1.13;1.03;;;;;;;18.11;59.52;98781.28;5061806;28;42123;-88
2022/12/31 15:06:00;;;;;;;1.13;0.90;;;;;;;17.84;59.22;98738.31;5077303;28;41016;-89
2022/12/31 15:08:46;;;;;;;0.93;0.90;;;;;;;18.02;59.51;98779.47;5076886;28;39676;-88
2022/12/31 15:11:35;;;;;;;1.30;1.20;;;;;;;17.76;59.69;98749.78;5076818;28;41053;-87
2022/12/31 15:14:35;;;;;;;2.10;0.90;;;;;;;17.84;60.18;98781.19;5077095;28;42058;-88
2022/12/31 15:17:20;;;;;;;1.33;1.23;;;;;;;17.69;60.14;98769.22;4999233;28;41595;-87
2022/12/31 15:20:13;;;;;;;1.03;0.90;;;;;;;17.67;60.39;98782.78;5077262;28;38918;-87
2022/12/31 15:22:44;;;;;;;1.37;1.00;;;;;;;17.58;61.12;98794.28;5073139;28;41707;-87
2022/12/31 15:25:27;;;;;;;1.90;1.30;;;;;;;17.51;61.16;98788.66;5077276;28;41787;-90
2022/12/31 15:27:57;;;;;;;1.37;1.00;;;;;;;17.34;61.43;98784.00;5077049;28;42265;-88
2022/12/31 15:30:36;;;;;;;0.90;0.80;;;;;;;17.32;61.75;98782.44;5076780;28;39752;-87
2022/12/31 15:33:17;;;;;;;0.90;0.80;;;;;;;17.28;61.65;98775.69;5092999;28;42063;-89
2022/12/31 15:35:48;;;;;;;1.20;1.10;;;;;;;17.19;62.36;98772.00;5077139;28;41638;-87
2022/12/31 15:38:32;;;;;;;1.10;1.00;;;;;;;17.13;62.63;98784.13;5076530;28;42501;-87
2022/12/31 15:41:01;;;;;;;1.80;1.00;;;;;;;17.15;63.20;98797.38;5076337;28;40126;-89
2022/12/31 15:43:37;;;;;;;0.93;0.80;;;;;;;17.07;63.25;98800.72;5076347;28;40826;-88
2022/12/31 15:46:15;;;;;;;1.80;1.10;;;;;;;16.96;63.54;98783.94;5076536;28;42768;-88
2022/12/31 15:48:48;;;;;;;0.83;0.83;;;;;;;16.83;63.95;98782.38;5077267;28;43663;-89
2022/12/31 15:51:21;;;;;;;1.57;1.17;;;;;;;16.83;63.99;98798.41;5076484;28;40097;-87
2022/12/31 15:53:53;;;;;;;0.90;0.90;;;;;;;16.88;64.42;98811.38;5076982;28;41017;-90
2022/12/31 15:56:30;;;;;;;1.27;0.90;;;;;;;16.73;64.30;98794.03;5076293;28;41853;-89
2022/12/31 15:59:02;;;;;;;1.30;0.93;;;;;;;16.69;64.50;98796.13;5076102;28;42431;-90
2022/12/31 16:01:32;;;;;;;1.17;1.07;;;;;;;16.74;64.61;98815.28;5075456;28;38967;-87
2022/12/31 16:04:04;;;;;;;1.40;1.30;;;;;;;16.63;64.68;98807.38;5074875;28;41459;-89
2022/12/31 16:06:36;;;;;;;3.33;1.40;;;;;;;16.52;65.16;98804.75;5074946;28;41707;-88
2022/12/31 16:09:08;;;;;;;1.57;1.10;;;;;;;16.37;65.42;98774.03;5075317;28;41414;-86
2022/12/31 16:11:40;;;;;;;1.20;1.10;;;;;;;16.50;65.68;98812.06;5075126;28;39029;-86
2022/12/31 16:14:15;;;;;;;1.50;1.40;;;;;;;16.42;65.52;98809.22;5076951;28;40638;-87
2022/12/31 16:16:52;;;;;;;1.87;1.00;;;;;;;16.39;65.80;98830.88;5076978;28;42568;-87
2022/12/31 16:19:30;;;;;;;1.23;1.10;;;;;;;16.34;66.25;98817.88;5077232;28;42614;-86
2022/12/31 16:22:01;;;;;;;1.50;1.40;;;;;;;16.24;66.55;98810.81;5076875;28;39275;-86
2022/12/31 16:24:30;;;;;;;1.90;1.37;;;;;;;16.24;66.46;98826.84;5077083;28;43309;-87
2022/12/31 16:27:02;;;;;;;1.47;1.20;;;;;;;16.12;66.55;98810.88;5076453;28;41605;-87
2022/12/31 16:29:30;;;;;;;1.63;1.13;;;;;;;16.05;66.49;98812.41;5077301;28;41234;-87
2022/12/31 16:31:58;;;;;;;1.87;1.10;;;;;;;16.01;67.03;98804.78;5075362;28;40088;-87
2022/12/31 16:34:28;;;;;;;1.63;1.20;;;;;;;16.05;67.03;98811.56;5093829;28;41712;-86
2022/12/31 16:37:00;;;;;;;1.87;1.27;;;;;;;15.94;67.14;98801.78;5075922;28;43273;-87
2022/12/31 16:39:30;;;;;;;1.73;1.20;;;;;;;15.89;67.55;98790.66;5075582;28;41502;-88
2022/12/31 16:42:16;;;;;;;1.50;1.30;;;;;;;15.89;67.48;98806.66;5076340;28;39442;-86
2022/12/31 16:44:45;;;;;;;2.53;2.10;;;;;;;15.72;67.63;98783.22;5076241;28;40497;-85
2022/12/31 16:47:19;;;;;;;2.30;1.67;;;;;;;15.87;67.85;98819.31;5075256;28;41638;-85
2022/12/31 16:49:55;;;;;;;2.07;1.23;;;;;;;15.75;67.98;98804.31;5075049;28;40938;-86
2022/12/31 16:52:30;;;;;;;1.63;1.53;;;;;;;15.75;67.68;98828.34;5075761;28;39188;-85
2022/12/31 16:54:59;;;;;;;2.63;1.60;;;;;;;15.58;68.14;98803.06;5075795;28;41698;-85
2022/12/31 16:57:31;;;;;;;2.40;2.03;;;;;;;15.62;68.45;98814.31;5093039;28;43656;-86
2022/12/31 17:00:02;;;;;;;2.37;1.80;;;;;;;15.55;68.36;98810.50;5075365;28;41065;-85
2022/12/31 17:02:37;;;;;;;2.00;1.73;;;;;;;15.53;68.64;98823.09;5091293;28;40853;-85
2022/12/31 17:05:18;;;;;;;2.03;1.70;;;;;;;15.50;68.85;98823.31;5092718;28;41818;-87
2022/12/31 17:07:46;;;;;;;3.30;2.43;;;;;;;15.36;68.57;98814.66;5075334;28;44149;-84
2022/12/31 17:10:22;;;;;;;1.70;1.60;;;;;;;15.35;68.92;98818.28;5075372;28;42003;-85
2022/12/31 17:12:54;;;;;;;2.13;1.50;;;;;;;15.31;68.99;98822.19;5091303;28;40220;-84
2022/12/31 17:15:26;;;;;;;2.90;1.70;;;;;;;15.22;69.54;98814.94;5075124;28;41153;-85
2022/12/31 17:17:57;;;;;;;2.30;2.10;;;;;;;15.04;69.66;98797.78;5091064;28;42819;-87
2022/12/31 17:20:29;;;;;;;3.47;2.83;;;;;;;15.05;70.21;98815.47;5075134;28;41078;-85
2022/12/31 17:22:59;;;;;;;3.13;2.83;;;;;;;15.08;70.32;98840.06;5075185;28;38850;-88
2022/12/31 17:25:30;;;;;;;3.43;3.13;;;;;;;15.04;70.74;98827.13;5074910;28;40662;-88
2022/12/31 17:27:59;;;;;;;3.73;3.30;;;;;;;14.99;71.19;98816.81;5074863;28;41779;-86
2022/12/31 17:30:40;;;;;;;2.57;2.37;;;;;;;14.89;71.16;98801.69;5092375;28;41927;-87
2022/12/31 17:33:29;;;;;;;2.80;2.60;;;;;;;14.92;71.62;98820.09;5074524;28;40586;-88
2022/12/31 17:36:14;;;;;;;2.80;2.40;;;;;;;14.99;71.66;98831.97;5074984;28;40658;-88
2022/12/31 17:38:42;;;;;;;2.93;2.50;;;;;;;14.85;71.55;98814.41;5075209;28;42025;-88
2022/12/31 17:41:25;;;;;;;2.60;2.40;;;;;;;14.95;71.60;98831.38;5091713;28;42413;-87
2022/12/31 17:43:55;;;;;;;3.70;2.33;;;;;;;14.92;71.41;98831.63;5075099;28;40748;-86
2022/12/31 17:46:25;;;;;;;4.07;2.50;;;;;;;14.84;71.50;98817.19;5074920;28;40316;-88
2022/12/31 17:48:55;;;;;;;2.40;2.03;;;;;;;14.78;71.07;98820.38;5074569;28;41848;-87
2022/12/31 17:51:25;;;;;;;3.00;2.70;;;;;;;14.76;71.13;98822.31;5074611;28;41326;-87
2022/12/31 17:53:52;;;;;;;3.00;2.00;;;;;;;14.82;71.16;98836.00;5074721;28;39105;-87
2022/12/31 17:56:20;;;;;;;2.40;2.20;;;;;;;14.65;71.19;98812.50;5074669;28;41730;-89
2022/12/31 17:58:51;;;;;;;2.80;2.57;;;;;;;14.73;71.50;98837.56;5074806;28;41445;-87
2022/12/31 18:01:21;;;;;;;4.90;2.50;;;;;;;14.58;71.54;98832.63;5074690;28;41410;-88
2022/12/31 18:03:49;;;;;;;3.30;3.00;;;;;;;14.66;71.51;98841.72;5078129;28;40872;-88
2022/12/31 18:06:18;;;;;;;3.80;3.33;;;;;;;14.44;71.77;98809.75;5077893;28;41970;-86
2022/12/31 18:08:47;;;;;;;3.40;3.10;;;;;;;14.55;71.58;98832.88;5077961;28;43199;-85
2022/12/31 18:11:18;;;;;;;3.20;2.90;;;;;;;14.70;71.76;98848.50;5078201;28;41102;-87
